createdAt,value
2023-03-12T00:00:46.364Z,3.10
2023-03-12T00:03:12.823Z,3.97
2023-03-12T00:05:40.407Z,3.78
2023-03-12T00:08:07.581Z,3.95
2023-03-12T00:10:34.869Z,4.40
2023-03-12T00:13:01.887Z,3.85
2023-03-12T00:15:28.597Z,3.78
2023-03-12T00:17:55.144Z,3.88
2023-03-12T00:20:23.383Z,3.53
2023-03-12T00:22:50.644Z,3.10
2023-03-12T00:25:17.293Z,3.38
2023-03-12T00:27:43.931Z,3.30
2023-03-12T00:30:11.431Z,3.35
2023-03-12T00:32:38.439Z,3.20
2023-03-12T00:35:05.863Z,3.28
2023-03-12T00:37:33.421Z,3.60
2023-03-12T00:40:01.702Z,3.55
2023-03-12T00:42:28.767Z,3.40
2023-03-12T00:44:55.283Z,3.17
2023-03-12T00:47:21.779Z,3.00
2023-03-12T00:49:48.329Z,3.67
2023-03-12T00:52:15.653Z,3.22
2023-03-12T00:54:42.206Z,3.00
2023-03-12T00:57:08.767Z,2.95
2023-03-12T00:59:35.343Z,3.10
2023-03-12T01:02:01.867Z,3.00
2023-03-12T01:04:28.340Z,3.05
2023-03-12T01:06:55.639Z,2.70
2023-03-12T01:09:22.129Z,3.20
2023-03-12T01:11:48.680Z,2.97
2023-03-12T01:14:15.246Z,2.67
2023-03-12T01:16:41.918Z,2.83
2023-03-12T01:19:08.400Z,2.45
2023-03-12T01:21:34.915Z,2.70
2023-03-12T01:24:01.447Z,2.55
2023-03-12T01:26:27.913Z,3.28
2023-03-12T01:28:54.496Z,2.83
2023-03-12T01:31:21.636Z,2.80
2023-03-12T01:33:50.453Z,2.70
2023-03-12T01:36:25.523Z,2.75
2023-03-12T01:38:53.667Z,3.22
2023-03-12T01:41:21.375Z,2.65
2023-03-12T01:43:47.970Z,2.80
2023-03-12T01:46:34.038Z,2.58
2023-03-12T01:49:05.725Z,2.22
2023-03-12T01:51:46.961Z,2.17
2023-03-12T01:54:27.618Z,2.40
2023-03-12T01:56:54.714Z,2.30
2023-03-12T01:59:28.333Z,2.65
2023-03-12T02:01:54.904Z,2.20
2023-03-12T02:04:22.949Z,2.40
2023-03-12T02:06:53.692Z,2.20
2023-03-12T02:09:21.470Z,2.20
2023-03-12T02:11:48.165Z,2.00
2023-03-12T02:14:14.842Z,2.60
2023-03-12T02:16:41.305Z,2.45
2023-03-12T02:19:16.381Z,2.75
2023-03-12T02:21:42.781Z,2.28
2023-03-12T02:24:24.334Z,2.60
2023-03-12T02:26:50.774Z,2.72
2023-03-12T02:29:17.403Z,2.85
2023-03-12T02:31:49.121Z,2.65
2023-03-12T02:34:15.574Z,2.65
2023-03-12T02:36:41.943Z,3.10
2023-03-12T02:39:11.109Z,2.55
2023-03-12T02:41:43.209Z,2.22
2023-03-12T02:44:19.237Z,2.50
2023-03-12T02:46:49.077Z,2.17
2023-03-12T02:49:17.639Z,2.28
2023-03-12T02:51:44.772Z,2.40
2023-03-12T02:54:12.029Z,3.08
2023-03-12T02:56:38.623Z,2.90
2023-03-12T02:59:06.235Z,2.60
2023-03-12T03:01:35.528Z,2.78
2023-03-12T03:04:02.873Z,3.13
2023-03-12T03:06:29.485Z,2.85
2023-03-12T03:08:55.981Z,3.00
2023-03-12T03:11:25.418Z,3.08
2023-03-12T03:13:52.775Z,2.97
2023-03-12T03:16:19.537Z,2.55
2023-03-12T03:18:46.040Z,3.58
2023-03-12T03:21:16.461Z,3.50
2023-03-12T03:23:47.002Z,3.78
2023-03-12T03:26:14.459Z,4.28
2023-03-12T03:31:07.889Z,4.00
2023-03-12T03:33:35.648Z,4.28
2023-03-12T03:36:02.439Z,3.88
2023-03-12T03:38:30.185Z,4.07
2023-03-12T03:40:56.663Z,4.63
2023-03-12T03:43:23.235Z,4.50
2023-03-12T03:45:50.130Z,4.40
2023-03-12T03:48:16.482Z,5.03
2023-03-12T03:50:42.866Z,4.40
2023-03-12T03:53:09.635Z,4.72
2023-03-12T03:55:37.694Z,4.75
2023-03-12T03:58:04.486Z,4.60
2023-03-12T04:00:31.203Z,4.68
2023-03-12T04:02:57.633Z,4.10
2023-03-12T04:05:25.075Z,4.00
2023-03-12T04:07:54.924Z,4.10
2023-03-12T04:10:22.093Z,3.85
2023-03-12T04:12:48.574Z,4.45
2023-03-12T04:15:14.966Z,4.47
2023-03-12T04:17:41.395Z,4.40
2023-03-12T04:20:09.400Z,4.47
2023-03-12T04:22:35.732Z,4.50
2023-03-12T04:25:02.213Z,4.50
2023-03-12T04:27:28.604Z,4.60
2023-03-12T04:29:55.096Z,4.70
2023-03-12T04:32:21.620Z,4.53
2023-03-12T04:34:47.966Z,4.65
2023-03-12T04:37:14.374Z,4.97
2023-03-12T04:39:41.424Z,4.93
2023-03-12T04:42:08.354Z,5.28
2023-03-12T04:44:34.810Z,5.22
2023-03-12T04:47:01.358Z,5.00
2023-03-12T04:49:28.161Z,4.65
2023-03-12T04:51:54.895Z,4.80
2023-03-12T04:54:21.371Z,4.78
2023-03-12T04:56:48.715Z,4.60
2023-03-12T04:59:15.225Z,4.53
2023-03-12T05:01:41.764Z,4.47
2023-03-12T05:04:08.278Z,4.75
2023-03-12T05:06:35.108Z,4.20
2023-03-12T05:09:01.532Z,4.82
2023-03-12T05:11:28.003Z,4.78
2023-03-12T05:13:54.363Z,4.32
2023-03-12T05:16:20.812Z,4.47
2023-03-12T05:18:47.525Z,4.70
2023-03-12T05:21:17.272Z,4.03
2023-03-12T05:23:44.297Z,3.75
2023-03-12T05:26:26.178Z,4.30
2023-03-12T05:28:52.869Z,4.00
2023-03-12T05:31:20.733Z,4.28
2023-03-12T05:33:47.369Z,4.10
2023-03-12T05:36:14.658Z,4.40
2023-03-12T05:38:42.566Z,4.20
2023-03-12T05:41:11.006Z,4.38
2023-03-12T05:43:37.376Z,4.25
2023-03-12T05:46:04.889Z,4.28
2023-03-12T05:48:31.766Z,5.07
2023-03-12T05:50:58.171Z,4.45
2023-03-12T05:53:24.622Z,4.63
2023-03-12T05:55:51.082Z,4.90
2023-03-12T05:58:17.470Z,4.40
2023-03-12T06:00:44.460Z,5.57
2023-03-12T06:03:10.982Z,5.47
2023-03-12T06:05:37.757Z,5.07
2023-03-12T06:08:05.527Z,5.32
2023-03-12T06:10:31.885Z,5.60
2023-03-12T06:12:58.924Z,5.40
2023-03-12T06:15:25.357Z,5.13
2023-03-12T06:17:51.730Z,5.50
2023-03-12T06:20:18.193Z,5.95
2023-03-12T06:22:44.746Z,4.95
2023-03-12T06:25:11.174Z,5.50
2023-03-12T06:27:37.571Z,5.50
2023-03-12T06:30:05.068Z,6.05
2023-03-12T06:32:31.563Z,6.15
2023-03-12T06:35:00.477Z,6.53
2023-03-12T06:37:27.770Z,6.95
2023-03-12T06:39:54.244Z,6.53
2023-03-12T06:42:20.754Z,6.45
2023-03-12T06:44:47.150Z,6.80
2023-03-12T06:47:14.382Z,6.53
2023-03-12T06:49:42.257Z,6.78
2023-03-12T06:52:08.643Z,6.70
2023-03-12T06:54:35.043Z,6.55
2023-03-12T06:57:01.449Z,6.50
2023-03-12T06:59:28.510Z,5.93
2023-03-12T07:01:54.936Z,6.50
2023-03-12T07:04:21.325Z,6.30
2023-03-12T07:06:51.231Z,6.35
2023-03-12T07:09:18.544Z,6.55
2023-03-12T07:11:45.230Z,6.28
2023-03-12T07:14:11.719Z,6.25
2023-03-12T07:16:38.162Z,6.25
2023-03-12T07:19:04.542Z,6.05
2023-03-12T07:21:31.662Z,6.25
2023-03-12T07:23:58.132Z,6.90
2023-03-12T07:26:24.499Z,7.13
2023-03-12T07:28:50.870Z,6.65
2023-03-12T07:31:17.260Z,6.80
2023-03-12T07:33:43.791Z,7.40
2023-03-12T07:36:10.311Z,7.18
2023-03-12T07:38:36.839Z,6.75
2023-03-12T07:41:03.307Z,7.50
2023-03-12T07:43:29.792Z,7.75
2023-03-12T07:45:56.291Z,7.15
2023-03-12T07:48:22.744Z,7.57
2023-03-12T07:50:49.229Z,7.15
2023-03-12T07:53:15.973Z,7.93
2023-03-12T07:55:44.438Z,7.70
2023-03-12T07:58:12.878Z,7.65
2023-03-12T08:00:39.428Z,7.85
2023-03-12T08:03:06.157Z,8.40
2023-03-12T08:05:32.603Z,8.85
2023-03-12T08:07:58.997Z,8.52
2023-03-12T08:10:25.457Z,9.32
2023-03-12T08:12:51.846Z,8.30
2023-03-12T08:15:18.333Z,8.70
2023-03-12T08:17:45.320Z,9.95
2023-03-12T08:20:13.861Z,8.75
2023-03-12T08:22:40.811Z,9.02
2023-03-12T08:25:08.317Z,9.18
2023-03-12T08:27:34.644Z,9.77
2023-03-12T08:30:01.014Z,9.63
2023-03-12T08:32:27.484Z,9.32
2023-03-12T08:34:53.964Z,10.43
2023-03-12T08:37:20.379Z,10.60
2023-03-12T08:39:46.703Z,11.75
2023-03-12T08:42:13.064Z,11.25
2023-03-12T08:44:39.478Z,12.43
2023-03-12T08:47:06.095Z,11.95
2023-03-12T08:49:32.543Z,12.18
2023-03-12T08:51:59.353Z,13.13
2023-03-12T08:54:25.680Z,14.10
2023-03-12T08:56:52.745Z,13.43
2023-03-12T08:59:23.351Z,12.60
2023-03-12T09:01:49.740Z,14.27
2023-03-12T09:04:16.641Z,13.25
2023-03-12T09:06:43.368Z,13.23
2023-03-12T09:09:09.735Z,13.98
2023-03-12T09:11:39.036Z,14.10
2023-03-12T09:14:46.333Z,13.63
2023-03-12T09:16:51.932Z,14.25
2023-03-12T09:19:18.399Z,16.17
2023-03-12T09:21:44.806Z,15.65
2023-03-12T09:24:11.560Z,16.00
2023-03-12T09:26:37.962Z,15.75
2023-03-12T09:29:04.293Z,17.75
2023-03-12T09:31:30.653Z,16.55
2023-03-12T09:33:57.068Z,18.50
2023-03-12T09:36:23.404Z,19.30
2023-03-12T09:38:49.976Z,23.88
2023-03-12T09:41:29.997Z,21.73
2023-03-12T09:44:27.122Z,21.02
2023-03-12T09:46:56.030Z,21.38
2023-03-12T09:49:38.632Z,22.40
2023-03-12T09:52:16.552Z,25.48
2023-03-12T09:54:54.584Z,22.08
2023-03-12T09:57:24.276Z,21.83
2023-03-12T09:59:52.118Z,22.10
2023-03-12T10:02:55.919Z,21.65
2023-03-12T10:06:01.277Z,22.00
2023-03-12T10:08:39.812Z,22.48
2023-03-12T10:11:08.953Z,22.30
2023-03-12T10:13:53.847Z,24.33
2023-03-12T10:16:40.432Z,22.95
2023-03-12T10:19:44.561Z,24.20
2023-03-12T10:22:25.588Z,24.25
2023-03-12T10:25:03.972Z,24.88
2023-03-12T10:27:34.828Z,24.67
2023-03-12T10:30:01.253Z,24.38
2023-03-12T10:32:39.467Z,23.83
2023-03-12T10:35:24.196Z,24.13
2023-03-12T10:37:52.122Z,24.02
2023-03-12T10:40:21.539Z,24.67
2023-03-12T10:42:48.432Z,26.65
2023-03-12T10:45:42.853Z,25.60
2023-03-12T10:50:39.357Z,25.80
2023-03-12T10:53:22.542Z,27.55
2023-03-12T10:56:18.580Z,27.65
2023-03-12T10:58:47.171Z,25.98
2023-03-12T11:01:23.363Z,25.70
2023-03-12T11:03:53.909Z,26.27
2023-03-12T11:06:29.194Z,26.80
2023-03-12T11:09:18.539Z,25.67
2023-03-12T11:11:47.799Z,27.23
2023-03-12T11:14:20.981Z,25.67
2023-03-12T11:16:48.124Z,24.55
2023-03-12T11:19:27.016Z,25.55
2023-03-12T11:22:01.379Z,24.42
2023-03-12T11:24:28.037Z,23.80
2023-03-12T11:27:17.472Z,22.88
2023-03-12T11:29:48.360Z,23.95
2023-03-12T11:32:24.307Z,22.95
2023-03-12T11:34:52.588Z,21.90
2023-03-12T11:37:40.538Z,21.38
2023-03-12T11:40:31.505Z,19.45
2023-03-12T11:43:12.462Z,21.58
2023-03-12T11:45:54.036Z,20.23
2023-03-12T11:48:25.977Z,19.58
2023-03-12T11:51:08.196Z,18.38
2023-03-12T11:53:53.336Z,19.77
2023-03-12T11:56:27.695Z,18.55
2023-03-12T11:59:14.513Z,18.55
2023-03-12T12:01:53.416Z,18.25
2023-03-12T12:04:43.829Z,18.40
2023-03-12T12:07:34.981Z,18.35
2023-03-12T12:10:32.700Z,17.55
2023-03-12T12:13:23.161Z,17.83
2023-03-12T12:16:14.769Z,18.33
2023-03-12T12:19:09.009Z,18.48
2023-03-12T12:22:07.944Z,16.83
2023-03-12T12:25:16.543Z,17.10
2023-03-12T12:27:57.716Z,19.17
2023-03-12T12:31:12.553Z,17.55
2023-03-12T12:34:11.191Z,16.58
2023-03-12T12:36:37.760Z,17.10
2023-03-12T12:39:14.792Z,18.38
2023-03-12T12:41:51.214Z,17.65
2023-03-12T12:44:21.415Z,18.00
2023-03-12T12:46:58.843Z,17.67
2023-03-12T12:49:38.893Z,16.40
2023-03-12T12:52:08.063Z,17.38
2023-03-12T12:54:43.490Z,18.23
2023-03-12T12:57:25.351Z,17.63
2023-03-12T13:00:22.325Z,18.00
2023-03-12T13:02:49.301Z,17.50
2023-03-12T13:05:26.134Z,17.60
2023-03-12T13:07:52.873Z,18.80
2023-03-12T13:10:34.368Z,17.98
2023-03-12T13:13:04.981Z,18.77
2023-03-12T13:15:31.208Z,17.70
2023-03-12T13:18:08.969Z,17.95
2023-03-12T13:21:00.788Z,16.13
2023-03-12T13:23:45.019Z,18.95
2023-03-12T13:26:26.135Z,18.90
2023-03-12T13:28:56.882Z,18.90
2023-03-12T13:31:29.283Z,17.10
2023-03-12T13:34:05.631Z,16.27
2023-03-12T13:36:36.688Z,16.65
2023-03-12T13:39:05.719Z,17.98
2023-03-12T13:41:46.873Z,17.05
2023-03-12T13:44:29.736Z,16.48
2023-03-12T13:47:18.280Z,17.13
2023-03-12T13:49:54.370Z,17.48
2023-03-12T13:52:34.815Z,16.45
2023-03-12T13:55:06.820Z,16.67
2023-03-12T13:57:46.186Z,16.80
2023-03-12T14:00:27.610Z,16.35
2023-03-12T14:03:03.600Z,16.42
2023-03-12T14:05:33.661Z,17.55
2023-03-12T14:08:10.638Z,16.73
2023-03-12T14:10:49.903Z,17.10
2023-03-12T14:13:31.994Z,16.52
2023-03-12T14:16:10.351Z,15.80
2023-03-12T14:18:38.178Z,16.95
2023-03-12T14:21:09.246Z,15.40
2023-03-12T14:23:39.164Z,15.35
2023-03-12T14:26:06.548Z,15.85
2023-03-12T14:28:39.522Z,16.60
2023-03-12T14:31:09.948Z,17.15
2023-03-12T14:33:49.478Z,16.20
2023-03-12T14:36:19.113Z,15.63
2023-03-12T14:38:48.815Z,16.35
2023-03-12T14:41:35.866Z,17.60
2023-03-12T14:44:18.684Z,17.10
2023-03-12T14:47:16.001Z,15.38
2023-03-12T14:49:46.380Z,14.13
2023-03-12T14:52:13.795Z,16.10
2023-03-12T14:54:40.361Z,16.00
2023-03-12T14:57:13.551Z,15.07
2023-03-12T14:59:39.916Z,16.37
2023-03-12T15:02:18.124Z,16.65
2023-03-12T15:04:46.191Z,17.02
2023-03-12T15:07:15.521Z,16.23
2023-03-12T15:09:44.210Z,17.02
2023-03-12T15:12:19.036Z,16.83
2023-03-12T15:14:45.748Z,18.45
2023-03-12T15:17:17.826Z,18.45
2023-03-12T15:19:44.399Z,16.67
2023-03-12T15:22:21.979Z,16.63
2023-03-12T15:24:48.320Z,15.13
2023-03-12T15:27:29.656Z,15.98
2023-03-12T15:29:57.531Z,16.75
2023-03-12T15:32:25.219Z,14.95
2023-03-12T15:34:53.566Z,15.20
2023-03-12T15:37:35.081Z,15.20
2023-03-12T15:40:04.522Z,14.55
2023-03-12T15:42:37.945Z,13.88
2023-03-12T15:45:04.845Z,14.15
2023-03-12T15:47:32.935Z,13.88
2023-03-12T15:50:02.401Z,14.05
2023-03-12T15:52:34.020Z,14.30
2023-03-12T15:55:09.777Z,13.38
2023-03-12T15:57:52.895Z,13.85
2023-03-12T16:00:24.604Z,12.95
2023-03-12T16:02:54.995Z,13.07
2023-03-12T16:05:41.621Z,12.85
2023-03-12T16:08:17.032Z,12.43
2023-03-12T16:10:43.450Z,12.70
2023-03-12T16:13:14.056Z,12.00
2023-03-12T16:15:40.534Z,11.90
2023-03-12T16:18:13.171Z,12.32
2023-03-12T16:20:39.665Z,12.30
2023-03-12T16:23:06.116Z,12.65
2023-03-12T16:25:32.627Z,12.63
2023-03-12T16:28:01.763Z,12.82
2023-03-12T16:30:30.944Z,12.90
2023-03-12T16:32:58.720Z,13.40
2023-03-12T16:35:27.789Z,13.75
2023-03-12T16:37:55.640Z,13.00
2023-03-12T16:40:32.825Z,12.80
2023-03-12T16:43:03.650Z,12.13
2023-03-12T16:45:31.793Z,12.30
2023-03-12T16:48:00.304Z,14.57
2023-03-12T16:50:27.682Z,10.95
2023-03-12T16:52:54.267Z,10.88
2023-03-12T16:55:22.507Z,11.23
2023-03-12T16:58:01.046Z,9.85
2023-03-12T17:00:31.122Z,9.50
2023-03-12T17:02:59.028Z,9.88
2023-03-12T17:05:27.822Z,9.75
2023-03-12T17:07:54.626Z,9.57
2023-03-12T17:10:21.459Z,9.65
2023-03-12T17:12:48.474Z,9.60
2023-03-12T17:15:21.459Z,10.43
2023-03-12T17:17:49.207Z,10.98
2023-03-12T17:20:17.298Z,12.90
2023-03-12T17:22:44.066Z,11.68
2023-03-12T17:25:21.096Z,12.00
2023-03-12T17:27:47.643Z,10.25
2023-03-12T17:30:14.040Z,12.07
2023-03-12T17:32:40.540Z,12.15
2023-03-12T17:35:07.193Z,11.60
2023-03-12T17:37:34.445Z,11.93
2023-03-12T17:40:01.578Z,12.10
2023-03-12T17:42:28.334Z,11.35
2023-03-12T17:44:54.679Z,10.85
2023-03-12T17:47:21.022Z,11.27
2023-03-12T17:49:47.360Z,10.85
2023-03-12T17:52:13.724Z,11.05
2023-03-12T17:54:40.204Z,13.05
2023-03-12T17:57:06.577Z,12.70
2023-03-12T17:59:32.981Z,11.55
2023-03-12T18:01:59.460Z,12.18
2023-03-12T18:04:25.892Z,11.65
2023-03-12T18:06:52.331Z,12.38
2023-03-12T18:09:18.731Z,12.40
2023-03-12T18:11:45.229Z,12.23
2023-03-12T18:14:11.563Z,12.63
2023-03-12T18:16:38.112Z,11.73
2023-03-12T18:19:04.573Z,11.38
2023-03-12T18:21:30.978Z,12.80
2023-03-12T18:23:59.485Z,11.90
2023-03-12T18:26:28.480Z,11.02
2023-03-12T18:28:55.807Z,10.02
2023-03-12T18:31:22.523Z,10.18
2023-03-12T18:33:49.003Z,10.35
2023-03-12T18:36:15.360Z,10.95
2023-03-12T18:38:41.785Z,11.13
2023-03-12T18:41:10.601Z,10.63
2023-03-12T18:43:37.033Z,10.30
2023-03-12T18:46:03.651Z,10.25
2023-03-12T18:48:30.053Z,11.30
2023-03-12T18:50:56.637Z,9.82
2023-03-12T18:53:23.105Z,9.57
2023-03-12T18:55:56.582Z,10.18
2023-03-12T18:58:24.323Z,10.35
2023-03-12T19:00:52.632Z,9.75
2023-03-12T19:03:19.145Z,10.02
2023-03-12T19:05:45.827Z,10.90
2023-03-12T19:08:12.347Z,11.13
2023-03-12T19:10:41.959Z,10.63
2023-03-12T19:13:09.331Z,10.27
2023-03-12T19:15:38.573Z,10.48
2023-03-12T19:18:05.677Z,10.23
2023-03-12T19:20:32.343Z,10.88
2023-03-12T19:22:58.702Z,10.85
2023-03-12T19:25:25.062Z,13.02
2023-03-12T19:27:51.446Z,11.95
2023-03-12T19:30:18.040Z,12.27
2023-03-12T19:32:44.903Z,12.68
2023-03-12T19:35:12.943Z,14.45
2023-03-12T19:37:39.423Z,14.43
2023-03-12T19:40:06.700Z,11.60
2023-03-12T19:42:33.132Z,11.23
2023-03-12T19:45:01.367Z,12.10
2023-03-12T19:47:28.046Z,9.55
2023-03-12T19:49:54.623Z,10.50
2023-03-12T19:52:21.203Z,10.10
2023-03-12T19:55:01.630Z,9.00
2023-03-12T19:57:30.009Z,10.07
2023-03-12T19:59:56.353Z,9.82
2023-03-12T20:02:22.918Z,8.60
2023-03-12T20:04:49.532Z,8.60
2023-03-12T20:07:17.320Z,9.05
2023-03-12T20:09:43.744Z,8.07
2023-03-12T20:12:10.077Z,9.48
2023-03-12T20:14:36.588Z,13.63
2023-03-12T20:17:02.957Z,12.48
2023-03-12T20:19:29.296Z,11.60
2023-03-12T20:21:57.049Z,12.65
2023-03-12T20:24:23.844Z,10.80
2023-03-12T20:26:50.363Z,9.38
2023-03-12T20:29:16.770Z,8.35
2023-03-12T20:31:43.367Z,8.00
2023-03-12T20:34:09.803Z,8.25
2023-03-12T20:36:36.235Z,7.20
2023-03-12T20:39:02.594Z,8.73
2023-03-12T20:41:29.153Z,7.82
2023-03-12T20:43:57.345Z,8.63
2023-03-12T20:46:23.903Z,8.88
2023-03-12T20:48:50.578Z,9.15
2023-03-12T20:51:17.277Z,9.00
2023-03-12T20:53:43.633Z,8.80
2023-03-12T20:56:10.263Z,9.00
2023-03-12T20:58:36.736Z,8.95
2023-03-12T21:01:04.754Z,7.72
2023-03-12T21:03:31.471Z,7.75
2023-03-12T21:05:59.413Z,8.02
2023-03-12T21:08:26.389Z,8.18
2023-03-12T21:10:52.971Z,7.82
2023-03-12T21:13:20.701Z,9.00
2023-03-12T21:15:47.866Z,9.25
2023-03-12T21:18:14.605Z,7.57
2023-03-12T21:20:42.106Z,7.30
2023-03-12T21:23:10.436Z,7.65
2023-03-12T21:25:38.340Z,6.60
2023-03-12T21:28:05.487Z,6.50
2023-03-12T21:30:32.392Z,5.57
2023-03-12T21:32:58.804Z,6.43
2023-03-12T21:35:26.644Z,6.38
2023-03-12T21:37:56.852Z,6.53
2023-03-12T21:40:23.614Z,6.25
2023-03-12T21:42:50.461Z,7.00
2023-03-12T21:45:16.934Z,6.88
2023-03-12T21:47:43.271Z,6.65
2023-03-12T21:50:10.391Z,7.25
2023-03-12T21:52:41.485Z,6.97
2023-03-12T21:55:10.078Z,5.90
2023-03-12T21:57:36.629Z,8.13
2023-03-12T22:00:04.139Z,8.35
2023-03-12T22:02:31.521Z,8.68
2023-03-12T22:05:00.825Z,7.20
2023-03-12T22:07:29.894Z,7.32
2023-03-12T22:09:56.273Z,7.03
2023-03-12T22:12:22.621Z,7.57
2023-03-12T22:14:48.969Z,7.57
2023-03-12T22:17:15.406Z,6.82
2023-03-12T22:19:42.160Z,7.15
2023-03-12T22:22:09.104Z,7.78
2023-03-12T22:24:35.496Z,6.85
2023-03-12T22:27:03.261Z,6.57
2023-03-12T22:29:29.630Z,6.78
2023-03-12T22:31:56.260Z,5.88
2023-03-12T22:34:22.753Z,5.88
2023-03-12T22:36:49.152Z,5.85
2023-03-12T22:39:18.117Z,6.38
2023-03-12T22:41:50.592Z,7.40
2023-03-12T22:44:17.420Z,6.85
2023-03-12T22:46:43.920Z,7.07
2023-03-12T22:49:10.645Z,6.65
2023-03-12T22:51:37.051Z,6.82
2023-03-12T22:54:04.350Z,6.80
2023-03-12T22:56:30.695Z,10.00
2023-03-12T22:58:57.100Z,10.05
2023-03-12T23:01:23.796Z,9.48
2023-03-12T23:03:50.704Z,10.07
2023-03-12T23:06:25.055Z,9.27
2023-03-12T23:08:52.146Z,10.23
2023-03-12T23:11:19.547Z,10.48
2023-03-12T23:13:48.066Z,8.77
2023-03-12T23:16:18.197Z,6.68
2023-03-12T23:18:45.154Z,5.85
2023-03-12T23:21:13.879Z,6.53
2023-03-12T23:23:42.097Z,5.18
2023-03-12T23:26:09.256Z,6.45
2023-03-12T23:28:35.675Z,6.25
2023-03-12T23:31:04.882Z,5.50
2023-03-12T23:33:32.488Z,4.90
2023-03-12T23:36:01.769Z,4.50
2023-03-12T23:38:29.199Z,4.55
2023-03-12T23:41:05.996Z,4.72
2023-03-12T23:43:32.542Z,5.00
2023-03-12T23:46:01.178Z,5.75
2023-03-12T23:48:28.932Z,5.53
2023-03-12T23:51:03.955Z,5.72
2023-03-12T23:53:30.376Z,5.53
2023-03-12T23:55:58.214Z,5.13
2023-03-12T23:58:25.655Z,5.72
